createdAt,value
2022-07-29T00:02:12.357Z,101112.58
2022-07-29T00:04:40.600Z,101111.52
2022-07-29T00:07:08.960Z,101106.10
2022-07-29T00:09:42.991Z,101105.92
2022-07-29T00:12:26.278Z,101101.27
2022-07-29T00:14:56.324Z,101097.09
2022-07-29T00:17:26.304Z,101102.15
2022-07-29T00:19:54.580Z,101099.75
2022-07-29T00:22:23.055Z,101100.04
2022-07-29T00:24:51.722Z,101097.95
2022-07-29T00:27:19.984Z,101102.42
2022-07-29T00:29:48.321Z,101101.73
2022-07-29T00:32:16.648Z,101102.04
2022-07-29T00:35:03.385Z,101104.21
2022-07-29T00:37:31.766Z,101105.09
2022-07-29T00:40:00.173Z,101108.13
2022-07-29T00:42:28.773Z,101105.27
2022-07-29T00:44:57.061Z,101102.02
2022-07-29T00:47:25.339Z,101101.58
2022-07-29T00:49:53.754Z,101099.13
2022-07-29T00:52:22.462Z,101104.86
2022-07-29T00:54:50.719Z,101105.30
2022-07-29T00:57:19.400Z,101106.16
2022-07-29T00:59:47.618Z,101104.92
2022-07-29T01:02:15.947Z,101104.67
2022-07-29T01:04:44.489Z,101101.29
2022-07-29T01:07:13.252Z,101102.09
2022-07-29T01:09:45.837Z,101100.80
2022-07-29T01:12:19.619Z,101101.74
2022-07-29T01:14:49.808Z,101101.36
2022-07-29T01:17:38.088Z,101103.57
2022-07-29T01:20:19.951Z,101104.20
2022-07-29T01:23:22.718Z,101106.31
2022-07-29T01:25:56.056Z,101106.44
2022-07-29T01:28:56.800Z,101109.14
2022-07-29T01:31:58.575Z,101109.21
2022-07-29T01:34:46.214Z,101108.26
2022-07-29T01:37:25.095Z,101107.23
2022-07-29T01:39:57.067Z,101106.23
2022-07-29T01:42:33.224Z,101103.11
2022-07-29T01:45:15.143Z,101100.77
2022-07-29T01:47:51.772Z,101097.65
2022-07-29T01:50:24.760Z,101098.55
2022-07-29T01:53:00.146Z,101095.15
2022-07-29T01:55:32.282Z,101090.89
2022-07-29T01:58:01.975Z,101091.81
2022-07-29T02:00:33.607Z,101089.30
2022-07-29T02:03:06.636Z,101090.65
2022-07-29T02:05:36.270Z,101092.10
2022-07-29T02:08:06.419Z,101094.04
2022-07-29T02:10:36.673Z,101096.01
2022-07-29T02:13:06.905Z,101101.11
2022-07-29T02:15:36.625Z,101100.45
2022-07-29T02:18:12.323Z,101101.84
2022-07-29T02:20:42.452Z,101098.55
2022-07-29T02:23:12.844Z,101100.61
2022-07-29T02:25:44.078Z,101098.44
2022-07-29T02:28:14.380Z,101098.62
2022-07-29T02:30:44.436Z,101097.94
2022-07-29T02:33:17.148Z,101097.55
2022-07-29T02:35:47.214Z,101097.73
2022-07-29T02:38:38.548Z,101097.55
2022-07-29T02:41:12.927Z,101099.84
2022-07-29T02:43:44.370Z,101096.67
2022-07-29T02:46:28.565Z,101096.27
2022-07-29T02:49:00.463Z,101096.73
2022-07-29T02:52:02.975Z,101098.85
2022-07-29T02:54:43.624Z,101093.23
2022-07-29T02:57:30.039Z,101094.92
2022-07-29T03:00:04.809Z,101096.85
2022-07-29T03:02:37.677Z,101094.03
2022-07-29T03:05:09.287Z,101097.56
2022-07-29T03:07:41.477Z,101095.30
2022-07-29T03:10:13.408Z,101095.33
2022-07-29T03:12:43.861Z,101094.96
2022-07-29T03:15:12.589Z,101089.70
2022-07-29T03:17:41.526Z,101088.48
2022-07-29T03:20:11.144Z,101090.17
2022-07-29T03:22:44.630Z,101089.13
2022-07-29T03:25:14.541Z,101092.38
2022-07-29T03:27:43.868Z,101093.58
2022-07-29T03:30:18.420Z,101092.81
2022-07-29T03:32:52.557Z,101092.06
2022-07-29T03:35:21.368Z,101091.98
2022-07-29T03:37:50.244Z,101088.62
2022-07-29T03:40:27.116Z,101090.15
2022-07-29T03:42:56.738Z,101087.51
2022-07-29T03:45:26.673Z,101090.10
2022-07-29T03:48:01.290Z,101090.05
2022-07-29T03:50:32.173Z,101092.10
2022-07-29T03:53:00.864Z,101094.83
2022-07-29T03:55:33.395Z,101098.20
2022-07-29T03:58:03.404Z,101100.55
2022-07-29T04:00:32.921Z,101101.70
2022-07-29T04:03:01.775Z,101103.30
2022-07-29T04:05:30.037Z,101104.44
2022-07-29T04:07:58.342Z,101105.36
2022-07-29T04:10:31.855Z,101105.43
2022-07-29T04:13:02.362Z,101103.80
2022-07-29T04:15:31.741Z,101105.50
2022-07-29T04:18:00.622Z,101106.43
2022-07-29T04:20:29.243Z,101108.85
2022-07-29T04:22:57.522Z,101103.44
2022-07-29T04:25:25.749Z,101108.05
2022-07-29T04:28:03.167Z,101104.50
2022-07-29T04:30:33.254Z,101108.45
2022-07-29T04:33:03.230Z,101109.41
2022-07-29T04:35:38.316Z,101110.80
2022-07-29T04:38:15.839Z,101113.94
2022-07-29T04:40:45.738Z,101112.41
2022-07-29T04:43:17.026Z,101112.95
2022-07-29T04:45:51.570Z,101115.67
2022-07-29T04:48:24.020Z,101116.35
2022-07-29T04:50:57.891Z,101115.77
2022-07-29T04:53:27.181Z,101107.81
2022-07-29T04:55:55.634Z,101113.89
2022-07-29T04:58:24.780Z,101113.77
2022-07-29T05:00:53.445Z,101113.06
2022-07-29T05:03:21.760Z,101111.84
2022-07-29T05:05:50.046Z,101114.15
2022-07-29T05:08:18.520Z,101112.92
2022-07-29T05:10:47.532Z,101114.09
2022-07-29T05:13:15.748Z,101111.79
2022-07-29T05:15:44.148Z,101114.54
2022-07-29T05:18:12.470Z,101115.86
2022-07-29T05:20:40.959Z,101119.28
2022-07-29T05:23:09.284Z,101124.13
2022-07-29T05:25:42.992Z,101127.64
2022-07-29T05:28:12.975Z,101127.98
2022-07-29T05:30:41.295Z,101126.67
2022-07-29T05:33:09.589Z,101127.08
2022-07-29T05:36:00.606Z,101129.67
2022-07-29T05:38:30.020Z,101129.10
2022-07-29T05:41:00.455Z,101132.04
2022-07-29T05:43:29.722Z,101129.13
2022-07-29T05:45:58.119Z,101130.84
2022-07-29T05:48:26.788Z,101127.18
2022-07-29T05:50:55.701Z,101128.03
2022-07-29T05:53:24.761Z,101126.83
2022-07-29T05:55:53.471Z,101124.66
2022-07-29T05:58:21.751Z,101127.17
2022-07-29T06:00:50.050Z,101124.20
2022-07-29T06:03:18.327Z,101122.02
2022-07-29T06:05:46.695Z,101116.67
2022-07-29T06:08:15.045Z,101115.85
2022-07-29T06:10:43.699Z,101119.63
2022-07-29T06:13:12.519Z,101119.10
2022-07-29T06:15:40.726Z,101122.02
2022-07-29T06:18:11.030Z,101117.66
2022-07-29T06:20:39.445Z,101121.50
2022-07-29T06:23:07.710Z,101122.09
2022-07-29T06:25:37.745Z,101124.77
2022-07-29T06:28:06.435Z,101125.50
2022-07-29T06:30:34.787Z,101126.33
2022-07-29T06:33:03.847Z,101123.59
2022-07-29T06:35:38.552Z,101124.80
2022-07-29T06:38:30.682Z,101126.95
2022-07-29T06:41:04.015Z,101126.45
2022-07-29T06:43:50.852Z,101127.80
2022-07-29T06:46:23.561Z,101127.98
2022-07-29T06:48:53.443Z,101130.59
2022-07-29T06:51:23.803Z,101128.70
2022-07-29T06:53:59.869Z,101136.33
2022-07-29T06:56:38.696Z,101133.65
2022-07-29T06:59:10.429Z,101131.54
2022-07-29T07:01:40.949Z,101131.35
2022-07-29T07:04:10.423Z,101133.95
2022-07-29T07:06:39.422Z,101134.75
2022-07-29T07:09:08.131Z,101134.31
2022-07-29T07:11:36.591Z,101136.05
2022-07-29T07:14:04.956Z,101138.21
2022-07-29T07:16:33.530Z,101135.58
2022-07-29T07:19:01.971Z,101135.05
2022-07-29T07:21:31.316Z,101137.09
2022-07-29T07:24:00.735Z,101132.24
2022-07-29T07:26:29.498Z,101135.77
2022-07-29T07:28:59.066Z,101137.30
2022-07-29T07:31:27.489Z,101134.78
2022-07-29T07:33:56.221Z,101137.43
2022-07-29T07:36:24.661Z,101138.60
2022-07-29T07:38:52.983Z,101137.22
2022-07-29T07:41:22.692Z,101138.23
2022-07-29T07:43:50.949Z,101143.42
2022-07-29T07:46:19.174Z,101142.60
2022-07-29T07:48:47.919Z,101144.63
2022-07-29T07:51:16.630Z,101144.42
2022-07-29T07:53:45.875Z,101140.16
2022-07-29T07:56:14.205Z,101142.17
2022-07-29T07:58:42.483Z,101140.55
2022-07-29T08:01:10.764Z,101140.02
2022-07-29T08:03:40.016Z,101141.88
2022-07-29T08:06:08.898Z,101143.13
2022-07-29T08:08:37.263Z,101143.04
2022-07-29T08:11:09.359Z,101144.46
2022-07-29T08:13:39.729Z,101149.38
2022-07-29T08:16:13.176Z,101154.41
2022-07-29T08:18:43.621Z,101153.58
2022-07-29T08:21:14.891Z,101157.25
2022-07-29T08:23:58.687Z,101154.60
2022-07-29T08:26:29.268Z,101156.79
2022-07-29T08:28:58.056Z,101159.16
2022-07-29T08:31:26.406Z,101161.14
2022-07-29T08:33:54.936Z,101167.83
2022-07-29T08:36:23.573Z,101168.27
2022-07-29T08:38:52.144Z,101166.51
2022-07-29T08:41:21.082Z,101168.80
2022-07-29T08:43:50.543Z,101169.09
2022-07-29T08:46:20.251Z,101168.35
2022-07-29T08:48:49.276Z,101168.42
2022-07-29T08:51:20.330Z,101170.71
2022-07-29T08:53:50.041Z,101175.32
2022-07-29T08:56:20.426Z,101171.68
2022-07-29T08:58:52.199Z,101176.58
2022-07-29T09:01:35.135Z,101177.52
2022-07-29T09:04:11.111Z,101176.06
2022-07-29T09:06:44.808Z,101179.20
2022-07-29T09:09:14.929Z,101175.19
2022-07-29T09:11:44.565Z,101177.29
2022-07-29T09:14:14.884Z,101179.55
2022-07-29T09:16:55.459Z,101177.55
2022-07-29T09:19:26.399Z,101174.81
2022-07-29T09:21:59.106Z,101178.55
2022-07-29T09:24:35.422Z,101175.27
